Time;durP1;ratioP1;P1;durP2;ratioP2;P2;SDS_P1;SDS_P2;PMS_P1;PMS_P2;Temp;Humidity;BMP_temperature;BMP_pressure;BME280_temperature;BME280_humidity;BME280_pressure;Samples;Min_cycle;Max_cycle;Signal;HPM_P1;HPM_P2
2022/09/06 00:01:38;;;;;;;4.37;3.90;;;15.50;99.90;;;;;;5082674;28;20542;-80
2022/09/06 00:04:07;;;;;;;5.87;5.37;;;15.40;99.90;;;;;;5080323;28;20465;-80
2022/09/06 00:06:34;;;;;;;5.70;5.30;;;15.30;99.90;;;;;;5075647;28;20474;-81
2022/09/06 00:09:01;;;;;;;5.30;4.87;;;15.20;99.90;;;;;;5074843;28;20452;-82
2022/09/06 00:11:29;;;;;;;5.57;5.07;;;15.20;99.90;;;;;;5084333;28;20443;-80
2022/09/06 00:13:56;;;;;;;4.40;4.10;;;15.10;99.90;;;;;;5087230;28;20493;-80
2022/09/06 00:16:24;;;;;;;5.60;5.10;;;15.10;99.90;;;;;;5084919;28;20461;-81
2022/09/06 00:18:54;;;;;;;4.77;4.37;;;15.10;99.90;;;;;;5074989;28;20455;-83
2022/09/06 00:21:24;;;;;;;4.23;3.90;;;15.10;99.90;;;;;;5086985;28;20457;-80
2022/09/06 00:23:51;;;;;;;4.93;4.60;;;15.00;99.90;;;;;;5084057;28;20460;-80
2022/09/06 00:26:19;;;;;;;4.77;4.37;;;15.00;99.90;;;;;;5079117;28;20806;-81
2022/09/06 00:28:46;;;;;;;5.87;4.80;;;14.90;99.90;;;;;;5089965;28;20511;-82
2022/09/06 00:31:15;;;;;;;5.00;4.40;;;15.00;99.90;;;;;;5104375;27;20954;-83
2022/09/06 00:33:43;;;;;;;4.70;4.27;;;14.90;99.90;;;;;;5102717;28;20465;-81
2022/09/06 00:36:11;;;;;;;5.67;4.53;;;14.80;99.90;;;;;;5100259;27;20457;-80
2022/09/06 00:38:40;;;;;;;5.70;4.90;;;14.80;99.90;;;;;;5098804;27;20877;-81
2022/09/06 00:41:10;;;;;;;4.53;4.13;;;14.80;99.90;;;;;;5100635;28;20622;-81
2022/09/06 00:43:37;;;;;;;4.67;4.27;;;14.80;99.90;;;;;;5102622;28;20475;-84
2022/09/06 00:46:07;;;;;;;4.83;4.30;;;14.70;99.90;;;;;;5102033;27;20525;-80
2022/09/06 00:48:35;;;;;;;4.17;3.73;;;14.70;99.90;;;;;;5103712;28;20468;-82
2022/09/06 00:51:05;;;;;;;4.63;4.23;;;14.80;99.90;;;;;;5104418;27;20519;-83
2022/09/06 00:53:32;;;;;;;8.03;4.77;;;14.60;99.90;;;;;;5103176;28;20465;-83
2022/09/06 00:56:01;;;;;;;5.90;4.20;;;14.70;99.90;;;;;;5107255;27;20503;-83
2022/09/06 00:58:28;;;;;;;5.03;4.53;;;14.60;99.90;;;;;;5098906;27;20469;-80
2022/09/06 01:00:55;;;;;;;6.50;5.87;;;14.60;99.90;;;;;;5105187;27;21044;-81
2022/09/06 01:03:24;;;;;;;5.90;5.40;;;14.60;99.90;;;;;;5101146;28;20475;-81
2022/09/06 01:06:00;;;;;;;7.40;5.77;;;14.60;99.90;;;;;;5101779;28;20466;-82
2022/09/06 01:08:40;;;;;;;4.80;4.40;;;14.50;99.90;;;;;;5103822;28;20461;-80
2022/09/06 01:11:26;;;;;;;3.87;3.43;;;14.40;99.90;;;;;;5105635;28;20460;-84
2022/09/06 01:14:02;;;;;;;4.43;4.03;;;14.40;99.90;;;;;;5100673;28;20480;-82
2022/09/06 01:16:36;;;;;;;6.43;4.77;;;14.40;99.90;;;;;;5094149;28;20999;-81
2022/09/06 01:19:42;;;;;;;7.47;5.40;;;14.30;99.90;;;;;;5103361;28;20465;-81
2022/09/06 01:22:22;;;;;;;5.67;5.07;;;14.40;99.90;;;;;;5102216;28;20466;-80
2022/09/06 01:25:03;;;;;;;7.60;6.80;;;14.40;99.90;;;;;;5098258;28;20480;-80
2022/09/06 01:27:57;;;;;;;4.87;4.47;;;14.30;99.90;;;;;;5100265;28;20459;-81
2022/09/06 01:30:24;;;;;;;5.23;4.70;;;14.40;99.90;;;;;;5102772;28;20937;-83
2022/09/06 01:33:00;;;;;;;6.50;5.60;;;14.30;99.90;;;;;;5097465;28;21059;-80
2022/09/06 01:35:34;;;;;;;6.13;5.60;;;14.40;99.90;;;;;;5104786;27;21063;-80
2022/09/06 01:38:02;;;;;;;5.53;4.93;;;14.30;99.90;;;;;;5107995;27;20466;-79
2022/09/06 01:40:29;;;;;;;5.40;4.87;;;14.30;99.90;;;;;;5110678;27;20441;-80
2022/09/06 01:42:58;;;;;;;5.50;5.00;;;14.30;99.90;;;;;;5099692;27;20465;-80
2022/09/06 01:45:40;;;;;;;6.63;6.00;;;14.30;99.90;;;;;;5107378;27;20532;-82
2022/09/06 01:48:17;;;;;;;5.40;4.50;;;14.30;99.90;;;;;;5104304;27;20468;-80
2022/09/06 01:51:06;;;;;;;6.33;5.73;;;14.20;99.90;;;;;;5106329;27;20471;-80
2022/09/06 01:53:54;;;;;;;5.73;5.13;;;14.20;99.90;;;;;;5104002;27;20477;-80
2022/09/06 01:56:32;;;;;;;6.73;5.30;;;14.20;99.90;;;;;;5102551;27;20545;-83
2022/09/06 01:59:28;;;;;;;6.97;6.37;;;14.10;99.90;;;;;;5102228;28;20464;-82
2022/09/06 02:02:04;;;;;;;6.00;5.53;;;14.10;99.90;;;;;;5110180;27;20483;-81
2022/09/06 02:04:38;;;;;;;6.73;6.03;;;14.00;99.90;;;;;;5107725;27;20468;-80
2022/09/06 02:07:14;;;;;;;9.80;6.50;;;14.00;99.90;;;;;;5105341;27;20460;-80
2022/09/06 02:09:46;;;;;;;6.43;5.77;;;14.00;99.90;;;;;;5102572;27;20472;-80
2022/09/06 02:12:14;;;;;;;7.40;6.10;;;14.00;99.90;;;;;;5107914;27;20952;-83
2022/09/06 02:14:48;;;;;;;6.60;5.50;;;14.00;99.90;;;;;;5105033;27;20479;-80
2022/09/06 02:17:20;;;;;;;6.47;5.47;;;14.10;99.90;;;;;;5101868;27;20514;-80
2022/09/06 02:19:51;;;;;;;7.20;6.50;;;14.00;99.90;;;;;;5105049;27;21022;-82
2022/09/06 02:22:22;;;;;;;8.33;5.30;;;13.90;99.90;;;;;;5105466;27;20463;-83
2022/09/06 02:24:52;;;;;;;8.40;6.67;;;14.00;99.90;;;;;;5102502;27;20941;-81
2022/09/06 02:27:19;;;;;;;7.00;6.27;;;14.00;99.90;;;;;;5108828;27;20524;-80
2022/09/06 02:29:48;;;;;;;5.33;4.83;;;14.00;99.90;;;;;;5105900;27;20550;-80
2022/09/06 02:32:20;;;;;;;5.00;4.60;;;14.00;99.90;;;;;;5105803;27;20540;-80
2022/09/06 02:34:48;;;;;;;7.07;5.60;;;13.90;99.90;;;;;;5106078;27;20490;-80
2022/09/06 02:37:16;;;;;;;7.00;6.30;;;13.90;99.90;;;;;;5098240;27;20915;-82
2022/09/06 02:39:44;;;;;;;8.07;5.53;;;13.90;99.90;;;;;;5114126;27;20471;-79
2022/09/06 02:42:14;;;;;;;7.47;6.70;;;13.90;99.90;;;;;;5126400;27;20459;-81
2022/09/06 02:44:41;;;;;;;7.23;6.37;;;13.90;99.90;;;;;;5126937;27;20460;-80
2022/09/06 02:47:09;;;;;;;9.27;6.23;;;13.90;99.90;;;;;;5124953;28;20462;-80
2022/09/06 02:49:36;;;;;;;6.13;5.57;;;13.90;99.90;;;;;;5108917;28;20955;-81
2022/09/06 02:52:04;;;;;;;6.37;5.70;;;13.90;99.90;;;;;;5106101;27;20461;-82
2022/09/06 02:54:31;;;;;;;9.47;6.30;;;13.90;99.90;;;;;;5104211;27;20454;-79
2022/09/06 02:56:58;;;;;;;7.73;5.40;;;13.90;99.90;;;;;;5104531;27;20940;-80
2022/09/06 02:59:26;;;;;;;8.50;6.00;;;13.90;99.90;;;;;;5099669;27;20793;-79
2022/09/06 03:01:53;;;;;;;4.83;4.43;;;13.80;99.90;;;;;;5107582;27;20465;-79
2022/09/06 03:04:21;;;;;;;6.73;6.03;;;13.80;99.90;;;;;;5104280;27;20457;-81
2022/09/06 03:06:49;;;;;;;4.33;3.87;;;13.80;99.90;;;;;;5102672;28;20528;-80
2022/09/06 03:09:16;;;;;;;5.67;5.17;;;13.80;99.90;;;;;;5103886;28;20459;-81
2022/09/06 03:11:43;;;;;;;3.57;3.30;;;13.90;99.90;;;;;;5106769;27;20881;-82
2022/09/06 03:14:10;;;;;;;4.80;3.70;;;14.00;99.90;;;;;;5099202;27;20463;-79
2022/09/06 03:16:37;;;;;;;4.70;3.87;;;14.10;99.90;;;;;;5107498;27;20574;-79
2022/09/06 03:19:04;;;;;;;3.47;3.17;;;14.00;99.90;;;;;;5104822;27;20458;-79
2022/09/06 03:21:32;;;;;;;5.30;4.80;;;13.90;99.90;;;;;;5108487;27;20463;-79
2022/09/06 03:23:59;;;;;;;4.60;3.77;;;14.10;99.90;;;;;;5105806;27;20464;-82
2022/09/06 03:26:29;;;;;;;7.73;4.13;;;14.10;99.90;;;;;;5104520;27;20473;-79
2022/09/06 03:28:56;;;;;;;4.40;3.17;;;14.00;99.90;;;;;;5102645;27;20490;-80
2022/09/06 03:31:23;;;;;;;3.93;3.60;;;13.90;99.90;;;;;;5104086;27;20453;-78
2022/09/06 03:33:50;;;;;;;4.80;4.43;;;13.80;99.90;;;;;;5104151;27;20480;-80
2022/09/06 03:36:17;;;;;;;6.00;3.60;;;13.70;99.90;;;;;;5099676;27;20979;-79
2022/09/06 03:38:46;;;;;;;3.10;2.87;;;13.70;99.90;;;;;;5104160;27;20466;-79
2022/09/06 03:41:13;;;;;;;3.70;3.10;;;13.60;99.90;;;;;;5099083;27;20466;-79
2022/09/06 03:43:40;;;;;;;4.57;3.47;;;13.60;99.90;;;;;;5101800;27;20994;-79
2022/09/06 03:46:07;;;;;;;3.97;3.60;;;13.70;99.90;;;;;;5101344;27;20483;-80
2022/09/06 03:48:34;;;;;;;4.63;4.17;;;13.60;99.90;;;;;;5102940;27;20467;-79
2022/09/06 03:51:01;;;;;;;4.43;4.03;;;13.60;99.90;;;;;;5106727;27;20467;-79
2022/09/06 03:53:29;;;;;;;3.13;2.83;;;13.50;99.90;;;;;;5105225;27;20476;-78
2022/09/06 03:55:58;;;;;;;3.30;3.00;;;13.40;99.90;;;;;;5101464;27;20482;-79
2022/09/06 03:58:30;;;;;;;4.37;3.70;;;13.20;99.90;;;;;;5100510;27;20462;-79
2022/09/06 04:01:06;;;;;;;3.63;3.33;;;13.30;99.90;;;;;;5101190;27;20498;-80
2022/09/06 04:03:33;;;;;;;3.80;3.50;;;13.30;99.90;;;;;;5101254;27;20492;-82
2022/09/06 04:06:01;;;;;;;3.63;3.27;;;13.20;99.90;;;;;;5101052;27;20492;-79
2022/09/06 04:08:28;;;;;;;3.03;2.83;;;13.20;99.90;;;;;;5104144;27;21191;-80
2022/09/06 04:10:57;;;;;;;3.97;3.67;;;13.10;99.90;;;;;;5102562;27;20464;-78
2022/09/06 04:13:26;;;;;;;7.80;3.40;;;13.20;99.90;;;;;;5101142;27;21284;-80
2022/09/06 04:15:53;;;;;;;3.50;3.23;;;13.20;99.90;;;;;;5103233;27;20478;-79
2022/09/06 04:18:20;;;;;;;4.13;3.73;;;13.20;99.90;;;;;;5102051;27;20462;-79
2022/09/06 04:20:49;;;;;;;4.13;3.20;;;13.20;99.90;;;;;;5098173;27;20459;-79
2022/09/06 04:23:16;;;;;;;3.60;3.30;;;13.30;99.90;;;;;;5102521;28;20540;-83
2022/09/06 04:25:46;;;;;;;9.87;4.27;;;13.40;99.90;;;;;;5098609;27;20540;-79
2022/09/06 04:28:15;;;;;;;6.00;3.30;;;13.40;99.90;;;;;;5101123;27;21041;-81
2022/09/06 04:30:42;;;;;;;4.90;3.87;;;13.40;99.90;;;;;;5101446;28;20463;-79
2022/09/06 04:33:09;;;;;;;10.03;3.57;;;13.50;99.90;;;;;;5103018;27;20841;-79
2022/09/06 04:35:36;;;;;;;12.13;4.00;;;13.50;99.90;;;;;;5104616;27;20779;-82
2022/09/06 04:38:04;;;;;;;11.33;3.63;;;13.50;99.90;;;;;;5101537;27;20602;-78
2022/09/06 04:40:31;;;;;;;6.17;3.63;;;13.50;99.90;;;;;;5104210;28;20461;-78
2022/09/06 04:42:58;;;;;;;3.63;3.33;;;13.50;99.90;;;;;;5101153;27;20527;-79
2022/09/06 04:45:27;;;;;;;5.47;2.90;;;13.50;99.90;;;;;;5101750;28;20472;-79
2022/09/06 04:47:54;;;;;;;4.40;3.63;;;13.60;99.90;;;;;;5101930;27;20458;-80
2022/09/06 04:50:21;;;;;;;4.87;3.07;;;13.60;99.90;;;;;;5106579;27;20542;-80
2022/09/06 04:52:48;;;;;;;2.90;2.63;;;13.50;99.90;;;;;;5093471;28;20480;-79
2022/09/06 04:55:15;;;;;;;3.00;2.80;;;13.60;99.90;;;;;;5097597;27;20516;-80
2022/09/06 04:57:42;;;;;;;4.67;3.10;;;13.60;99.90;;;;;;5100442;27;20476;-85
2022/09/06 05:00:10;;;;;;;4.33;2.53;;;13.70;99.90;;;;;;5101307;28;20465;-82
2022/09/06 05:02:39;;;;;;;3.00;2.80;;;13.90;99.90;;;;;;5098230;27;20460;-80
2022/09/06 05:05:06;;;;;;;2.87;2.67;;;13.90;99.90;;;;;;5100589;28;20466;-79
2022/09/06 05:07:33;;;;;;;3.73;3.43;;;13.90;99.90;;;;;;5099314;27;20975;-79
2022/09/06 05:10:00;;;;;;;2.20;2.03;;;13.80;99.90;;;;;;5100800;27;20473;-78
2022/09/06 05:12:27;;;;;;;2.70;2.50;;;13.70;99.90;;;;;;5104368;27;20459;-79
2022/09/06 05:14:54;;;;;;;2.70;2.50;;;13.80;99.90;;;;;;5096538;28;21051;-79
2022/09/06 05:17:21;;;;;;;2.30;2.20;;;13.90;99.90;;;;;;5104449;28;20474;-79
2022/09/06 05:19:50;;;;;;;2.63;2.43;;;14.00;99.90;;;;;;5102643;28;20490;-82
2022/09/06 05:22:17;;;;;;;4.10;3.80;;;14.10;99.90;;;;;;5101613;28;20459;-79
2022/09/06 05:24:45;;;;;;;2.50;2.20;;;13.90;99.90;;;;;;5098884;28;20462;-81
2022/09/06 05:27:13;;;;;;;2.70;2.33;;;14.00;99.90;;;;;;5102488;28;20855;-79
2022/09/06 05:29:40;;;;;;;3.07;2.83;;;14.10;99.90;;;;;;5100544;28;21042;-79
2022/09/06 05:32:07;;;;;;;3.20;3.00;;;14.20;99.90;;;;;;5097516;28;20461;-79
2022/09/06 05:34:34;;;;;;;3.73;3.43;;;14.30;99.90;;;;;;5096739;28;20489;-79
2022/09/06 05:37:02;;;;;;;4.37;4.00;;;14.30;99.90;;;;;;5111176;28;20474;-79
2022/09/06 05:39:30;;;;;;;4.87;3.83;;;14.40;99.90;;;;;;5117724;28;20508;-79
2022/09/06 05:41:57;;;;;;;4.70;4.30;;;14.50;99.90;;;;;;5130215;28;20470;-80
2022/09/06 05:44:25;;;;;;;4.77;4.37;;;14.50;99.90;;;;;;5110991;28;20489;-78
2022/09/06 05:46:52;;;;;;;10.23;8.03;;;14.60;99.90;;;;;;5099557;28;20468;-80
2022/09/06 05:49:19;;;;;;;7.53;6.47;;;14.60;99.90;;;;;;5099759;28;20448;-79
2022/09/06 05:51:51;;;;;;;8.10;7.00;;;14.80;99.90;;;;;;5099297;28;20814;-83
2022/09/06 05:54:19;;;;;;;6.97;6.37;;;15.00;99.90;;;;;;5102461;28;20504;-82
2022/09/06 05:57:02;;;;;;;10.33;8.83;;;15.20;99.90;;;;;;5100349;28;20850;-80
2022/09/06 05:59:29;;;;;;;10.60;8.87;;;15.30;99.90;;;;;;5105237;28;21005;-83
2022/09/06 06:01:56;;;;;;;10.37;7.97;;;15.30;99.90;;;;;;5101701;28;20556;-82
2022/09/06 06:04:23;;;;;;;9.07;8.17;;;15.30;99.90;;;;;;5100941;28;22066;-81
2022/09/06 06:06:51;;;;;;;10.67;7.80;;;15.40;99.90;;;;;;5097625;28;20466;-82
2022/09/06 06:09:19;;;;;;;8.80;7.90;;;15.50;99.90;;;;;;5103021;28;20926;-80
2022/09/06 06:11:46;;;;;;;11.57;8.23;;;15.70;99.90;;;;;;5109276;28;20463;-81
2022/09/06 06:14:13;;;;;;;6.87;6.27;;;15.80;99.90;;;;;;5101919;27;20449;-84
2022/09/06 06:16:40;;;;;;;8.27;7.37;;;15.90;99.90;;;;;;5105150;28;20487;-82
2022/09/06 06:19:07;;;;;;;7.27;6.63;;;16.00;99.90;;;;;;5098210;28;20496;-86
2022/09/06 06:21:37;;;;;;;8.57;7.00;;;15.90;99.90;;;;;;5107430;27;20465;-82
2022/09/06 06:24:05;;;;;;;10.63;8.20;;;16.20;99.90;;;;;;5105439;28;20460;-82
2022/09/06 06:26:35;;;;;;;8.70;7.03;;;16.10;99.90;;;;;;5103952;27;20480;-81
2022/09/06 06:29:04;;;;;;;6.10;5.50;;;16.00;99.90;;;;;;5106724;27;20493;-81
2022/09/06 06:31:33;;;;;;;6.30;5.37;;;16.20;99.90;;;;;;5099913;27;20467;-81
2022/09/06 06:34:02;;;;;;;7.07;5.43;;;16.10;99.90;;;;;;5106367;27;20508;-79
2022/09/06 06:36:30;;;;;;;7.07;6.37;;;16.10;99.90;;;;;;5103855;28;20484;-79
2022/09/06 06:38:58;;;;;;;7.53;6.73;;;16.30;99.90;;;;;;5104256;27;20469;-79
2022/09/06 06:41:27;;;;;;;7.87;6.60;;;16.40;99.90;;;;;;5099191;27;20871;-79
2022/09/06 06:43:57;;;;;;;6.03;5.43;;;16.60;99.90;;;;;;5098143;27;20468;-84
2022/09/06 06:46:25;;;;;;;5.23;4.57;;;16.80;99.90;;;;;;5100998;27;20965;-79
2022/09/06 06:48:54;;;;;;;7.20;6.50;;;16.90;99.90;;;;;;5098418;27;20526;-79
2022/09/06 06:51:22;;;;;;;6.87;6.13;;;16.90;99.90;;;;;;5113237;27;20489;-81
2022/09/06 06:53:50;;;;;;;7.63;6.30;;;16.90;99.90;;;;;;5094498;27;20453;-79
2022/09/06 06:56:19;;;;;;;11.20;6.13;;;17.10;99.90;;;;;;5102289;28;20493;-79
2022/09/06 06:58:48;;;;;;;8.30;5.73;;;17.20;99.90;;;;;;5109732;27;20459;-79
2022/09/06 07:01:17;;;;;;;6.73;6.03;;;17.40;99.90;;;;;;5099987;27;20516;-79
2022/09/06 07:03:45;;;;;;;6.63;5.67;;;17.60;99.90;;;;;;5100988;27;20979;-79
2022/09/06 07:06:13;;;;;;;7.03;6.07;;;17.80;99.90;;;;;;5103073;27;20467;-79
2022/09/06 07:08:41;;;;;;;6.27;5.40;;;18.10;99.90;;;;;;5105732;27;20466;-82
2022/09/06 07:11:10;;;;;;;5.90;5.30;;;18.10;99.90;;;;;;5110681;27;20546;-79
2022/09/06 07:13:37;;;;;;;6.80;6.03;;;18.20;99.90;;;;;;5100548;27;20473;-79
2022/09/06 07:16:17;;;;;;;6.37;5.10;;;18.40;99.90;;;;;;5097229;27;20472;-79
2022/09/06 07:18:45;;;;;;;8.43;4.83;;;18.40;99.90;;;;;;5094843;28;20544;-79
2022/09/06 07:21:13;;;;;;;6.77;6.20;;;18.30;99.90;;;;;;5104389;27;20488;-79
2022/09/06 07:23:41;;;;;;;6.00;5.50;;;18.20;99.90;;;;;;5099145;27;20961;-79
2022/09/06 07:26:13;;;;;;;6.23;4.57;;;18.20;99.90;;;;;;5100122;28;20523;-79
2022/09/06 07:28:40;;;;;;;5.00;4.50;;;18.40;99.90;;;;;;5104017;27;20492;-80
2022/09/06 07:31:07;;;;;;;4.23;3.93;;;18.60;99.90;;;;;;5098048;27;20794;-83
2022/09/06 07:33:36;;;;;;;6.53;5.87;;;18.60;99.90;;;;;;5091248;28;20477;-82
2022/09/06 07:36:06;;;;;;;4.17;3.80;;;18.70;99.90;;;;;;5100820;27;20445;-82
2022/09/06 07:38:34;;;;;;;5.37;4.80;;;18.80;99.90;;;;;;5103965;28;20954;-81
2022/09/06 07:41:02;;;;;;;5.03;4.63;;;19.00;99.90;;;;;;5099892;27;20470;-84
2022/09/06 07:43:30;;;;;;;5.00;3.93;;;19.10;99.90;;;;;;5105766;27;20803;-81
2022/09/06 07:46:01;;;;;;;5.00;4.57;;;19.10;99.90;;;;;;5105228;27;20986;-81
2022/09/06 07:48:30;;;;;;;5.17;4.67;;;19.10;99.90;;;;;;5094255;28;20894;-81
2022/09/06 07:51:05;;;;;;;5.47;4.00;;;19.10;99.90;;;;;;5100115;27;20556;-81
2022/09/06 07:53:32;;;;;;;5.00;4.60;;;19.10;99.90;;;;;;5103913;27;20457;-83
2022/09/06 07:56:00;;;;;;;4.70;4.30;;;19.20;99.90;;;;;;5107372;27;20469;-82
2022/09/06 07:58:29;;;;;;;4.13;3.53;;;19.30;99.90;;;;;;5100081;27;20550;-84
2022/09/06 08:01:17;;;;;;;5.77;5.20;;;19.50;99.90;;;;;;5105513;27;20465;-82
2022/09/06 08:03:45;;;;;;;4.17;3.77;;;19.70;99.90;;;;;;5101246;27;20503;-84
2022/09/06 08:06:14;;;;;;;7.00;5.13;;;19.90;99.90;;;;;;5097112;27;20455;-81
2022/09/06 08:08:41;;;;;;;5.70;5.20;;;20.10;99.90;;;;;;5101301;27;20542;-81
2022/09/06 08:11:08;;;;;;;3.70;3.40;;;19.90;99.90;;;;;;5102226;27;20602;-81
2022/09/06 08:13:37;;;;;;;4.97;4.53;;;20.10;99.90;;;;;;5097587;28;20456;-81
2022/09/06 08:16:05;;;;;;;4.63;4.27;;;20.10;99.90;;;;;;5101657;27;20526;-82
2022/09/06 08:18:32;;;;;;;3.60;3.30;;;20.10;99.90;;;;;;5105548;27;20589;-81
2022/09/06 08:21:07;;;;;;;4.50;4.10;;;20.10;99.90;;;;;;5104901;27;20883;-81
2022/09/06 08:23:36;;;;;;;3.60;3.10;;;20.40;99.90;;;;;;5103436;27;20463;-81
2022/09/06 08:26:03;;;;;;;4.47;4.07;;;20.20;99.90;;;;;;5105901;27;20446;-81
2022/09/06 08:28:30;;;;;;;5.90;5.40;;;20.30;99.90;;;;;;5103286;27;20485;-83
2022/09/06 08:31:05;;;;;;;4.47;4.07;;;20.50;99.90;;;;;;5103461;27;20541;-81
2022/09/06 08:33:32;;;;;;;5.80;4.57;;;20.70;99.90;;;;;;5109912;27;20567;-82
2022/09/06 08:36:00;;;;;;;5.23;4.77;;;20.80;99.90;;;;;;5111681;27;20469;-80
2022/09/06 08:38:27;;;;;;;8.70;5.33;;;20.90;99.90;;;;;;5126081;27;20548;-79
2022/09/06 08:41:07;;;;;;;6.27;5.00;;;20.90;99.90;;;;;;5113562;27;20901;-80
2022/09/06 08:43:35;;;;;;;5.87;5.37;;;21.00;99.90;;;;;;5097639;28;20503;-83
2022/09/06 08:46:03;;;;;;;5.97;5.47;;;21.10;99.90;;;;;;5101239;28;20733;-81
2022/09/06 08:48:33;;;;;;;5.27;4.77;;;21.10;99.90;;;;;;5105386;27;20462;-79
2022/09/06 08:51:23;;;;;;;7.10;6.07;;;21.00;99.90;;;;;;5114449;27;20461;-80
2022/09/06 08:53:52;;;;;;;9.10;6.70;;;21.00;99.90;;;;;;5072909;28;20452;-81
2022/09/06 08:56:25;;;;;;;6.43;5.60;;;21.10;99.90;;;;;;5102151;27;20465;-79
2022/09/06 08:59:03;;;;;;;5.53;5.03;;;20.90;99.90;;;;;;5102561;27;20568;-83
2022/09/06 09:01:36;;;;;;;7.53;5.40;;;20.80;99.90;;;;;;5107760;28;20532;-82
2022/09/06 09:04:06;;;;;;;6.83;6.33;;;21.00;99.90;;;;;;5101610;28;20456;-81
2022/09/06 09:06:33;;;;;;;5.90;5.40;;;21.00;99.90;;;;;;5102950;28;21223;-79
2022/09/06 09:09:04;;;;;;;7.13;6.43;;;21.20;99.90;;;;;;5101251;28;20561;-82
2022/09/06 09:11:34;;;;;;;8.27;7.40;;;21.30;99.90;;;;;;5098657;28;20466;-80
2022/09/06 09:14:05;;;;;;;6.93;6.23;;;21.10;99.90;;;;;;5094010;27;20439;-80
2022/09/06 09:16:33;;;;;;;6.93;6.33;;;21.00;99.90;;;;;;5103322;28;20460;-82
2022/09/06 09:19:04;;;;;;;6.27;5.77;;;21.10;99.90;;;;;;5096625;27;20468;-80
2022/09/06 09:21:36;;;;;;;7.67;6.87;;;21.40;99.90;;;;;;5118357;27;20444;-83
2022/09/06 09:24:06;;;;;;;8.23;7.43;;;21.30;99.90;;;;;;5103901;27;20456;-82
2022/09/06 09:26:41;;;;;;;7.93;7.23;;;21.00;99.90;;;;;;5092005;28;20473;-85
2022/09/06 09:29:11;;;;;;;7.53;6.90;;;21.00;99.90;;;;;;5104726;28;20479;-82
2022/09/06 09:31:40;;;;;;;8.83;6.23;;;20.90;99.90;;;;;;5114228;28;20464;-82
2022/09/06 09:34:12;;;;;;;5.20;4.80;;;21.30;99.90;;;;;;5106508;28;20508;-82
2022/09/06 09:36:39;;;;;;;7.07;6.30;;;21.30;99.90;;;;;;5099971;28;20527;-80
2022/09/06 09:39:09;;;;;;;5.10;4.70;;;21.50;99.90;;;;;;5099981;28;20457;-82
2022/09/06 09:41:41;;;;;;;5.93;5.53;;;21.40;99.90;;;;;;5097870;28;20533;-80
2022/09/06 09:44:11;;;;;;;6.83;5.50;;;21.90;99.90;;;;;;5095991;28;20569;-81
2022/09/06 09:46:40;;;;;;;5.47;4.97;;;21.90;99.90;;;;;;5094866;28;20905;-80
2022/09/06 09:49:09;;;;;;;5.97;5.57;;;22.20;99.90;;;;;;5093338;28;20451;-79
2022/09/06 09:51:38;;;;;;;6.40;5.80;;;22.40;99.90;;;;;;5098063;28;20466;-80
2022/09/06 09:54:07;;;;;;;5.80;5.30;;;22.10;99.90;;;;;;5094353;28;20530;-80
2022/09/06 09:56:45;;;;;;;5.50;5.10;;;21.80;99.90;;;;;;5107260;27;20469;-83
2022/09/06 09:59:19;;;;;;;5.13;4.73;;;21.60;99.90;;;;;;5110986;27;20898;-80
2022/09/06 10:01:46;;;;;;;6.03;5.40;;;21.60;99.90;;;;;;5101742;27;20524;-80
2022/09/06 10:04:20;;;;;;;5.60;5.00;;;21.70;99.90;;;;;;5111842;27;20476;-80
2022/09/06 10:06:47;;;;;;;5.23;4.83;;;21.90;99.90;;;;;;5101015;27;20504;-80
2022/09/06 10:09:18;;;;;;;5.73;5.23;;;22.20;99.90;;;;;;5104938;27;20454;-81
2022/09/06 10:11:56;;;;;;;6.20;5.70;;;22.20;99.90;;;;;;5114715;27;21020;-80
2022/09/06 10:14:28;;;;;;;5.40;5.00;;;22.20;99.90;;;;;;5098663;27;20512;-81
2022/09/06 10:16:56;;;;;;;4.87;4.40;;;22.10;99.90;;;;;;5111429;27;20465;-80
2022/09/06 10:19:36;;;;;;;5.03;4.60;;;22.00;99.90;;;;;;5101208;27;20470;-80
2022/09/06 10:22:27;;;;;;;5.23;4.73;;;22.00;99.90;;;;;;5105361;27;20449;-80
2022/09/06 10:25:33;;;;;;;5.40;4.87;;;21.90;99.90;;;;;;5102606;27;20518;-85
2022/09/06 10:28:31;;;;;;;4.30;4.00;;;22.10;99.90;;;;;;5110615;27;20533;-83
2022/09/06 10:31:23;;;;;;;6.00;5.50;;;22.20;99.90;;;;;;5103089;27;20466;-85
2022/09/06 10:34:03;;;;;;;7.80;5.40;;;22.10;99.90;;;;;;5085227;27;20462;-84
2022/09/06 10:36:35;;;;;;;6.23;5.70;;;22.40;99.90;;;;;;5103494;27;20470;-86
2022/09/06 10:39:07;;;;;;;5.37;4.93;;;22.70;99.90;;;;;;5112809;27;20537;-82
2022/09/06 10:41:50;;;;;;;4.87;4.47;;;22.70;99.90;;;;;;5107600;27;20468;-78
2022/09/06 10:44:31;;;;;;;5.10;4.37;;;22.80;99.90;;;;;;5107615;27;20465;-77
2022/09/06 10:47:08;;;;;;;4.90;4.50;;;22.80;99.90;;;;;;5103206;27;20580;-78
2022/09/06 10:49:37;;;;;;;5.03;4.30;;;22.90;99.90;;;;;;5102854;27;21134;-79
2022/09/06 10:52:08;;;;;;;4.77;4.27;;;22.90;99.90;;;;;;5102390;27;20459;-80
2022/09/06 10:54:45;;;;;;;5.00;4.60;;;23.10;99.90;;;;;;5103132;27;20944;-82
2022/09/06 10:57:19;;;;;;;5.17;4.77;;;23.30;99.90;;;;;;5101725;27;20530;-80
2022/09/06 10:59:51;;;;;;;6.70;6.00;;;23.40;99.90;;;;;;5099233;27;20981;-80
2022/09/06 11:02:34;;;;;;;4.33;3.73;;;23.70;99.90;;;;;;5100212;27;20457;-80
2022/09/06 11:05:06;;;;;;;3.80;3.50;;;23.60;99.90;;;;;;5091314;28;20518;-80
2022/09/06 11:07:36;;;;;;;4.40;3.47;;;23.70;99.90;;;;;;5093888;27;21182;-80
2022/09/06 11:10:08;;;;;;;3.80;3.50;;;23.80;99.90;;;;;;5093315;28;20446;-80
2022/09/06 11:12:42;;;;;;;3.07;2.87;;;23.60;99.90;;;;;;5103143;27;20514;-82
2022/09/06 11:15:14;;;;;;;4.10;3.80;;;23.50;99.90;;;;;;5096812;28;20462;-79
2022/09/06 11:17:47;;;;;;;3.40;3.20;;;23.70;99.90;;;;;;5106837;27;20481;-80
2022/09/06 11:20:22;;;;;;;3.57;3.27;;;23.70;99.90;;;;;;5102915;27;20561;-80
2022/09/06 11:23:34;;;;;;;9.37;3.40;;;23.90;99.90;;;;;;5106656;27;21043;-81
2022/09/06 11:26:22;;;;;;;3.00;2.80;;;23.80;99.90;;;;;;5059502;28;20460;-80
2022/09/06 11:28:54;;;;;;;3.27;3.07;;;24.00;99.90;;;;;;5064093;28;20479;-79
2022/09/06 11:31:25;;;;;;;4.10;2.93;;;24.00;99.90;;;;;;5092050;28;20497;-79
2022/09/06 11:34:07;;;;;;;4.07;3.30;;;24.20;99.90;;;;;;5118085;27;20463;-80
2022/09/06 11:36:39;;;;;;;3.67;3.37;;;24.10;99.90;;;;;;5107220;28;20467;-82
2022/09/06 11:39:09;;;;;;;3.30;3.10;;;24.20;99.90;;;;;;5090800;28;21033;-80
2022/09/06 11:41:40;;;;;;;3.20;3.00;;;24.10;99.90;;;;;;5098458;28;20454;-79
2022/09/06 11:44:07;;;;;;;4.60;3.00;;;24.30;99.90;;;;;;5101715;27;20998;-79
2022/09/06 11:47:01;;;;;;;3.80;3.27;;;24.40;99.90;;;;;;5105495;27;20504;-79
2022/09/06 11:49:32;;;;;;;3.50;3.30;;;24.60;99.90;;;;;;5096796;27;20462;-79
2022/09/06 11:51:59;;;;;;;2.83;2.63;;;24.60;99.90;;;;;;5105393;27;20477;-79
2022/09/06 11:54:34;;;;;;;5.10;4.70;;;24.80;99.90;;;;;;5097081;28;21004;-81
2022/09/06 11:57:09;;;;;;;2.50;2.30;;;24.90;99.90;;;;;;5100111;27;20724;-79
2022/09/06 11:59:48;;;;;;;3.20;3.00;;;25.10;99.90;;;;;;5112729;27;20830;-79
2022/09/06 12:02:35;;;;;;;4.27;3.97;;;25.40;99.90;;;;;;5098922;27;20898;-79
2022/09/06 12:05:18;;;;;;;3.37;3.17;;;25.50;99.90;;;;;;5123818;27;20472;-79
2022/09/06 12:08:23;;;;;;;2.73;2.60;;;25.40;99.90;;;;;;5107724;27;20500;-79
2022/09/06 12:10:56;;;;;;;2.93;2.73;;;25.40;99.90;;;;;;5102021;27;21117;-79
2022/09/06 12:13:48;;;;;;;2.40;2.20;;;25.80;99.90;;;;;;5094304;27;20462;-83
2022/09/06 12:16:17;;;;;;;3.30;3.10;;;25.80;99.90;;;;;;5113514;27;20469;-79
2022/09/06 12:18:56;;;;;;;2.30;2.20;;;25.60;99.90;;;;;;5105137;27;20554;-80
2022/09/06 12:21:46;;;;;;;2.33;1.77;;;25.60;99.90;;;;;;5102416;27;20452;-80
2022/09/06 12:24:52;;;;;;;3.43;3.23;;;25.50;99.90;;;;;;5086428;27;20454;-81
2022/09/06 12:27:21;;;;;;;3.17;2.83;;;25.70;99.90;;;;;;5112444;27;20469;-80
2022/09/06 12:29:55;;;;;;;2.20;2.10;;;25.60;99.90;;;;;;5108578;27;20495;-81
2022/09/06 12:32:26;;;;;;;2.60;2.40;;;25.60;99.90;;;;;;5097087;27;20450;-80
2022/09/06 12:34:56;;;;;;;2.80;2.60;;;25.80;99.90;;;;;;5106162;27;20472;-84
2022/09/06 12:37:36;;;;;;;2.90;2.60;;;25.60;99.90;;;;;;5094776;27;20531;-79
2022/09/06 12:40:05;;;;;;;1.90;1.80;;;25.50;99.90;;;;;;5103676;27;20460;-80
2022/09/06 12:42:34;;;;;;;2.50;2.40;;;25.50;99.90;;;;;;5096903;27;20455;-82
2022/09/06 12:45:04;;;;;;;1.70;1.60;;;25.60;99.90;;;;;;5092400;28;20448;-80
2022/09/06 12:47:34;;;;;;;2.70;2.50;;;25.60;99.90;;;;;;5093169;27;20462;-80
2022/09/06 12:50:16;;;;;;;2.03;1.93;;;26.00;99.90;;;;;;5092323;27;21170;-80
2022/09/06 12:52:48;;;;;;;3.13;2.80;;;25.80;99.90;;;;;;5102406;28;20461;-79
2022/09/06 12:55:20;;;;;;;2.37;2.27;;;26.10;99.90;;;;;;5100040;27;20527;-80
2022/09/06 12:57:50;;;;;;;1.87;1.77;;;25.80;99.90;;;;;;5106465;27;20465;-81
2022/09/06 13:00:18;;;;;;;1.60;1.50;;;25.50;99.90;;;;;;5097848;27;20534;-83
2022/09/06 13:02:57;;;;;;;2.57;2.00;;;25.70;99.90;;;;;;5089431;28;20526;-80
2022/09/06 13:05:26;;;;;;;3.73;2.87;;;25.70;99.90;;;;;;5113641;27;21003;-80
2022/09/06 13:07:57;;;;;;;4.17;3.90;;;25.80;99.90;;;;;;5103082;27;20853;-80